PWSweather.com
Personal Weather Stations
Station Observations
OLESAMETEO
Olesa De Montserrat, Olesa De MontserratES

Olesa De MontserratOlesa De MontserratES

Lat: 41.53982, Lon: 1.89508

Elevation: 110

Station Type: DAVIS VANTAGE VUE

http://olesameteo.net

Latest ConditionsUpdated 9:10:01 PM GMT+01:01 Monday, Sep 24, 2018
Currently Today's Max Today's Min Today's Average
Temperature 73.4°F23.0°C 86.1°F30.1°C 68.9°F20.5°C 75.1°F23.9°C
Dew Point 66.9°F19.4°C 69.9°F21.1°C 61.2°F16.2°C 65.9°F18.8°C
Winds Calm Calm 3.5 mph -5.6 kmh - - 0.9 mph 1.4 kmh
Wind Gusts 2.3 mph3.7 kmh 9.2 mph14.8 kmh - -
Humidity 80% 90% 55% 74%
Pressure 30.17 in1021.7 mb 30.17 in1021.7 mb 30.09 in1019.0 mb -
Hour Temp Dew Point Humidity Winds Wind Gusts Pressure Precip Precip Rate Daily Precip Total
09:10 PM 73.4°F23.0°C 66.9°F19.4°C 80% Calm Calm 2.3 mph3.7 kmh 30.17 in1021.7 mb - 0.00 in0.0 mm 0.00 in0.0 mm
09:00 PM 73.5°F23.1°C 66.9°F19.4°C 80% Calm Calm -- 30.17 in1021.7 mb - 0.00 in0.0 mm 0.00 in0.0 mm
08:50 PM 73.4°F23.0°C 66.9°F19.4°C 80% 1.2 mph SSW1.9 kmh SSW 1.2 mph1.9 kmh 30.17 in1021.7 mb - 0.00 in0.0 mm 0.00 in0.0 mm
08:40 PM 73.5°F23.1°C 66.9°F19.4°C 80% Calm Calm 1.2 mph1.9 kmh 30.16 in1021.3 mb - 0.00 in0.0 mm 0.00 in0.0 mm
08:30 PM 73.6°F23.1°C 67.0°F19.4°C 80% 1.2 mph SSW1.9 kmh SSW 3.5 mph5.6 kmh 30.16 in1021.3 mb - 0.00 in0.0 mm 0.00 in0.0 mm
08:20 PM 73.6°F23.1°C 67.1°F19.5°C 80% 1.2 mph SSW1.9 kmh SSW 2.3 mph3.7 kmh 30.16 in1021.3 mb - 0.00 in0.0 mm 0.00 in0.0 mm
08:10 PM 73.9°F23.3°C 67.4°F19.7°C 80% 1.2 mph SSW1.9 kmh SSW 3.5 mph5.6 kmh 30.15 in1021.0 mb - 0.00 in0.0 mm 0.00 in0.0 mm
08:00 PM 74.0°F23.3°C 67.4°F19.7°C 80% Calm Calm 1.2 mph1.9 kmh 30.15 in1021.0 mb - 0.00 in0.0 mm 0.00 in0.0 mm
07:50 PM 74.1°F23.4°C 67.2°F19.6°C 79% 1.2 mph SSW1.9 kmh SSW 2.3 mph3.7 kmh 30.15 in1021.0 mb - 0.00 in0.0 mm 0.00 in0.0 mm
07:40 PM 74.3°F23.5°C 67.4°F19.7°C 79% 1.2 mph S1.9 kmh S 3.5 mph5.6 kmh 30.14 in1020.7 mb - 0.00 in0.0 mm 0.00 in0.0 mm
07:30 PM 74.4°F23.6°C 67.1°F19.5°C 78% 2.3 mph S3.7 kmh S 3.5 mph5.6 kmh 30.14 in1020.7 mb - 0.00 in0.0 mm 0.00 in0.0 mm
07:20 PM 74.5°F23.6°C 67.2°F19.6°C 78% 1.2 mph SSW1.9 kmh SSW 3.5 mph5.6 kmh 30.14 in1020.7 mb - 0.00 in0.0 mm 0.00 in0.0 mm
07:10 PM 74.6°F23.7°C 67.3°F19.6°C 78% Calm Calm 2.3 mph3.7 kmh 30.13 in1020.3 mb - 0.00 in0.0 mm 0.00 in0.0 mm
07:00 PM 74.7°F23.7°C 67.0°F19.4°C 77% 1.2 mph SSW1.9 kmh SSW 2.3 mph3.7 kmh 30.13 in1020.3 mb - 0.00 in0.0 mm 0.00 in0.0 mm
06:50 PM 74.8°F23.8°C 67.1°F19.5°C 77% 1.2 mph SSW1.9 kmh SSW 4.6 mph7.4 kmh 30.13 in1020.3 mb - 0.00 in0.0 mm 0.00 in0.0 mm
06:40 PM 75.0°F23.9°C 67.7°F19.8°C 78% Calm Calm 4.6 mph7.4 kmh 30.13 in1020.3 mb - 0.00 in0.0 mm 0.00 in0.0 mm
06:30 PM 75.0°F23.9°C 67.3°F19.6°C 77% 1.2 mph SSW1.9 kmh SSW 3.5 mph5.6 kmh 30.12 in1020.0 mb - 0.00 in0.0 mm 0.00 in0.0 mm
06:20 PM 75.2°F24.0°C 67.1°F19.5°C 76% 3.5 mph S5.6 kmh S 4.6 mph7.4 kmh 30.12 in1020.0 mb - 0.00 in0.0 mm 0.00 in0.0 mm
06:10 PM 75.3°F24.1°C 67.2°F19.6°C 76% 2.3 mph S3.7 kmh S 5.8 mph9.3 kmh 30.12 in1020.0 mb - 0.00 in0.0 mm 0.00 in0.0 mm
06:00 PM 75.4°F24.1°C 67.3°F19.6°C 76% 2.3 mph SE3.7 kmh SE 3.5 mph5.6 kmh 30.12 in1020.0 mb - 0.00 in0.0 mm 0.00 in0.0 mm
05:50 PM 75.6°F24.2°C 67.1°F19.5°C 75% 1.2 mph S1.9 kmh S 3.5 mph5.6 kmh 30.11 in1019.6 mb - 0.00 in0.0 mm 0.00 in0.0 mm
05:40 PM 75.9°F24.4°C 67.4°F19.7°C 75% 2.3 mph S3.7 kmh S 3.5 mph5.6 kmh 30.11 in1019.6 mb - 0.00 in0.0 mm 0.00 in0.0 mm
05:30 PM 76.1°F24.5°C 67.2°F19.6°C 74% 2.3 mph SW3.7 kmh SW 3.5 mph5.6 kmh 30.11 in1019.6 mb - 0.00 in0.0 mm 0.00 in0.0 mm
05:20 PM 76.3°F24.6°C 67.4°F19.7°C 74% 1.2 mph SSW1.9 kmh SSW 3.5 mph5.6 kmh 30.11 in1019.6 mb - 0.00 in0.0 mm 0.00 in0.0 mm
05:10 PM 76.3°F24.6°C 67.0°F19.4°C 73% 2.3 mph SW3.7 kmh SW 3.5 mph5.6 kmh 30.11 in1019.6 mb - 0.00 in0.0 mm 0.00 in0.0 mm
05:00 PM 76.3°F24.6°C 67.0°F19.4°C 73% 2.3 mph SSW3.7 kmh SSW 3.5 mph5.6 kmh 30.10 in1019.3 mb - 0.00 in0.0 mm 0.00 in0.0 mm
04:50 PM 77.0°F25.0°C 67.3°F19.6°C 72% 3.5 mph SSE5.6 kmh SSE 5.8 mph9.3 kmh 30.10 in1019.3 mb - 0.00 in0.0 mm 0.00 in0.0 mm
04:40 PM 77.4°F25.2°C 67.6°F19.8°C 72% 3.5 mph SSE5.6 kmh SSE 5.8 mph9.3 kmh 30.10 in1019.3 mb - 0.00 in0.0 mm 0.00 in0.0 mm
04:30 PM 77.7°F25.4°C 67.5°F19.7°C 71% 2.3 mph SW3.7 kmh SW 4.6 mph7.4 kmh 30.10 in1019.3 mb - 0.00 in0.0 mm 0.00 in0.0 mm
04:20 PM 77.9°F25.5°C 67.7°F19.8°C 71% 2.3 mph SSW3.7 kmh SSW 4.6 mph7.4 kmh 30.10 in1019.3 mb - 0.00 in0.0 mm 0.00 in0.0 mm
04:10 PM 78.1°F25.6°C 67.9°F19.9°C 71% 2.3 mph S3.7 kmh S 5.8 mph9.3 kmh 30.10 in1019.3 mb - 0.00 in0.0 mm 0.00 in0.0 mm
04:00 PM 77.9°F25.5°C 67.8°F19.9°C 71% 2.3 mph SE3.7 kmh SE 3.5 mph5.6 kmh 30.10 in1019.3 mb - 0.00 in0.0 mm 0.00 in0.0 mm
03:50 PM 78.2°F25.7°C 68.0°F20.0°C 71% 3.5 mph S5.6 kmh S 5.8 mph9.3 kmh 30.10 in1019.3 mb - 0.00 in0.0 mm 0.00 in0.0 mm
03:40 PM 78.6°F25.9°C 68.0°F20.0°C 70% 2.3 mph S3.7 kmh S 3.5 mph5.6 kmh 30.10 in1019.3 mb - 0.00 in0.0 mm 0.00 in0.0 mm
03:30 PM 79.0°F26.1°C 68.4°F20.2°C 70% 2.3 mph S3.7 kmh S 6.9 mph11.1 kmh 30.10 in1019.3 mb - 0.00 in0.0 mm 0.00 in0.0 mm
03:20 PM 79.5°F26.4°C 68.5°F20.3°C 69% 1.2 mph SSE1.9 kmh SSE 9.2 mph14.8 kmh 30.09 in1019.0 mb - 0.00 in0.0 mm 0.00 in0.0 mm
03:10 PM 80.0°F26.7°C 68.5°F20.3°C 68% 3.5 mph SSW5.6 kmh SSW 5.8 mph9.3 kmh 30.09 in1019.0 mb - 0.00 in0.0 mm 0.00 in0.0 mm
03:00 PM 80.7°F27.1°C 68.7°F20.4°C 67% 3.5 mph S5.6 kmh S 8.1 mph13.0 kmh 30.09 in1019.0 mb - 0.00 in0.0 mm 0.00 in0.0 mm
02:50 PM 82.4°F28.0°C 69.0°F20.6°C 64% 2.3 mph SW3.7 kmh SW 3.5 mph5.6 kmh 30.09 in1019.0 mb - 0.00 in0.0 mm 0.00 in0.0 mm
02:40 PM 83.9°F28.8°C 69.5°F20.8°C 62% 1.2 mph S1.9 kmh S 3.5 mph5.6 kmh 30.09 in1019.0 mb - 0.00 in0.0 mm 0.00 in0.0 mm
02:30 PM 84.7°F29.3°C 69.3°F20.7°C 60% 1.2 mph S1.9 kmh S 4.6 mph7.4 kmh 30.10 in1019.3 mb - 0.00 in0.0 mm 0.00 in0.0 mm
02:20 PM 84.6°F29.2°C 69.2°F20.7°C 60% 2.3 mph S3.7 kmh S 3.5 mph5.6 kmh 30.10 in1019.3 mb - 0.00 in0.0 mm 0.00 in0.0 mm
02:10 PM 84.8°F29.3°C 69.4°F20.8°C 60% 3.5 mph SSE5.6 kmh SSE 4.6 mph7.4 kmh 30.10 in1019.3 mb - 0.00 in0.0 mm 0.00 in0.0 mm
02:00 PM 84.8°F29.3°C 69.4°F20.8°C 60% 1.2 mph SSW1.9 kmh SSW 5.8 mph9.3 kmh 30.11 in1019.6 mb - 0.00 in0.0 mm 0.00 in0.0 mm
01:50 PM 85.4°F29.7°C 69.9°F21.1°C 60% 2.3 mph SSE3.7 kmh SSE 3.5 mph5.6 kmh 30.11 in1019.6 mb - 0.00 in0.0 mm 0.00 in0.0 mm
01:40 PM 85.5°F29.7°C 69.6°F20.9°C 59% 2.3 mph S3.7 kmh S 5.8 mph9.3 kmh 30.12 in1020.0 mb - 0.00 in0.0 mm 0.00 in0.0 mm
01:30 PM 86.0°F30.0°C 68.5°F20.3°C 56% 2.3 mph S3.7 kmh S 3.5 mph5.6 kmh 30.12 in1020.0 mb - 0.00 in0.0 mm 0.00 in0.0 mm
01:20 PM 86.1°F30.1°C 68.1°F20.1°C 55% 2.3 mph S3.7 kmh S 3.5 mph5.6 kmh 30.12 in1020.0 mb - 0.00 in0.0 mm 0.00 in0.0 mm
01:10 PM 85.7°F29.8°C 68.2°F20.1°C 56% Calm Calm 2.3 mph3.7 kmh 30.13 in1020.3 mb - 0.00 in0.0 mm 0.00 in0.0 mm
01:00 PM 85.0°F29.4°C 68.0°F20.0°C 57% Calm Calm 2.3 mph3.7 kmh 30.13 in1020.3 mb - 0.00 in0.0 mm 0.00 in0.0 mm
12:50 PM 84.0°F28.9°C 67.6°F19.8°C 58% 1.2 mph SSW1.9 kmh SSW 2.3 mph3.7 kmh 30.14 in1020.7 mb - 0.00 in0.0 mm 0.00 in0.0 mm
12:40 PM 83.5°F28.6°C 67.7°F19.8°C 59% 2.3 mph SSW3.7 kmh SSW 3.5 mph5.6 kmh 30.14 in1020.7 mb - 0.00 in0.0 mm 0.00 in0.0 mm
12:30 PM 82.9°F28.3°C 67.1°F19.5°C 59% 1.2 mph S1.9 kmh S 2.3 mph3.7 kmh 30.15 in1021.0 mb - 0.00 in0.0 mm 0.00 in0.0 mm
12:20 PM 83.2°F28.4°C 67.4°F19.7°C 59% Calm Calm 2.3 mph3.7 kmh 30.15 in1021.0 mb - 0.00 in0.0 mm 0.00 in0.0 mm
12:10 PM 83.2°F28.4°C 66.9°F19.4°C 58% 1.2 mph SE1.9 kmh SE 3.5 mph5.6 kmh 30.15 in1021.0 mb - 0.00 in0.0 mm 0.00 in0.0 mm
12:00 PM 82.9°F28.3°C 66.6°F19.2°C 58% Calm Calm 1.2 mph1.9 kmh 30.15 in1021.0 mb - 0.00 in0.0 mm 0.00 in0.0 mm
11:50 AM 83.5°F28.6°C 66.7°F19.3°C 57% 1.2 mph S1.9 kmh S 3.5 mph5.6 kmh 30.16 in1021.3 mb - 0.00 in0.0 mm 0.00 in0.0 mm
11:40 AM 83.4°F28.6°C 66.1°F18.9°C 56% Calm Calm 2.3 mph3.7 kmh 30.16 in1021.3 mb - 0.00 in0.0 mm 0.00 in0.0 mm
11:30 AM 82.9°F28.3°C 66.1°F18.9°C 57% Calm Calm -- 30.16 in1021.3 mb - 0.00 in0.0 mm 0.00 in0.0 mm
11:20 AM 82.1°F27.8°C 65.9°F18.8°C 58% Calm Calm 1.2 mph1.9 kmh 30.16 in1021.3 mb - 0.00 in0.0 mm 0.00 in0.0 mm
11:10 AM 81.4°F27.4°C 65.7°F18.7°C 59% Calm Calm -- 30.16 in1021.3 mb - 0.00 in0.0 mm 0.00 in0.0 mm
11:00 AM 80.3°F26.8°C 64.6°F18.1°C 59% Calm Calm 1.2 mph1.9 kmh 30.16 in1021.3 mb - 0.00 in0.0 mm 0.00 in0.0 mm
10:50 AM 80.1°F26.7°C 63.5°F17.5°C 57% Calm Calm 1.2 mph1.9 kmh 30.16 in1021.3 mb - 0.00 in0.0 mm 0.00 in0.0 mm
10:40 AM 79.6°F26.4°C 63.6°F17.6°C 58% Calm Calm -- 30.16 in1021.3 mb - 0.00 in0.0 mm 0.00 in0.0 mm
10:30 AM 78.2°F25.7°C 63.7°F17.6°C 61% Calm Calm 1.2 mph1.9 kmh 30.16 in1021.3 mb - 0.00 in0.0 mm 0.00 in0.0 mm
10:20 AM 77.4°F25.2°C 62.9°F17.2°C 61% Calm Calm 1.2 mph1.9 kmh 30.16 in1021.3 mb - 0.00 in0.0 mm 0.00 in0.0 mm
10:10 AM 77.4°F25.2°C 62.9°F17.2°C 61% Calm Calm 1.2 mph1.9 kmh 30.16 in1021.3 mb - 0.00 in0.0 mm 0.00 in0.0 mm
10:00 AM 77.5°F25.3°C 62.5°F16.9°C 60% 1.2 mph N1.9 kmh N 3.5 mph5.6 kmh 30.16 in1021.3 mb - 0.00 in0.0 mm 0.00 in0.0 mm
09:50 AM 76.9°F24.9°C 62.4°F16.9°C 61% Calm Calm 1.2 mph1.9 kmh 30.16 in1021.3 mb - 0.00 in0.0 mm 0.00 in0.0 mm
09:40 AM 76.4°F24.7°C 62.4°F16.9°C 62% 1.2 mph W1.9 kmh W 4.6 mph7.4 kmh 30.16 in1021.3 mb - 0.00 in0.0 mm 0.00 in0.0 mm
09:30 AM 75.2°F24.0°C 62.2°F16.8°C 64% 1.2 mph N1.9 kmh N 3.5 mph5.6 kmh 30.16 in1021.3 mb - 0.00 in0.0 mm 0.00 in0.0 mm
09:20 AM 74.7°F23.7°C 62.2°F16.8°C 65% 1.2 mph N1.9 kmh N 3.5 mph5.6 kmh 30.16 in1021.3 mb - 0.00 in0.0 mm 0.00 in0.0 mm
09:10 AM 74.9°F23.8°C 61.9°F16.6°C 64% 1.2 mph 1.9 kmh 2.3 mph3.7 kmh 30.16 in1021.3 mb - 0.00 in0.0 mm 0.00 in0.0 mm
09:00 AM 74.8°F23.8°C 62.2°F16.8°C 65% Calm Calm 2.3 mph3.7 kmh 30.16 in1021.3 mb - 0.00 in0.0 mm 0.00 in0.0 mm
08:50 AM 73.9°F23.3°C 62.7°F17.1°C 68% Calm Calm 1.2 mph1.9 kmh 30.15 in1021.0 mb - 0.00 in0.0 mm 0.00 in0.0 mm
08:40 AM 73.1°F22.8°C 62.3°F16.8°C 69% Calm Calm -- 30.15 in1021.0 mb - 0.00 in0.0 mm 0.00 in0.0 mm
08:30 AM 72.2°F22.3°C 62.3°F16.8°C 71% Calm Calm -- 30.15 in1021.0 mb - 0.00 in0.0 mm 0.00 in0.0 mm
08:20 AM 72.2°F22.3°C 62.3°F16.8°C 71% Calm Calm 1.2 mph1.9 kmh 30.14 in1020.7 mb - 0.00 in0.0 mm 0.00 in0.0 mm
08:10 AM 72.5°F22.5°C 61.3°F16.3°C 68% 2.3 mph NNW3.7 kmh NNW 3.5 mph5.6 kmh 30.14 in1020.7 mb - 0.00 in0.0 mm 0.00 in0.0 mm
08:00 AM 72.3°F22.4°C 61.6°F16.4°C 69% 3.5 mph NNW5.6 kmh NNW 6.9 mph11.1 kmh 30.14 in1020.7 mb - 0.00 in0.0 mm 0.00 in0.0 mm
07:50 AM 71.9°F22.2°C 61.2°F16.2°C 69% 2.3 mph NNE3.7 kmh NNE 6.9 mph11.1 kmh 30.13 in1020.3 mb - 0.00 in0.0 mm 0.00 in0.0 mm
07:40 AM 71.7°F22.1°C 61.4°F16.3°C 70% 2.3 mph N3.7 kmh N 3.5 mph5.6 kmh 30.13 in1020.3 mb - 0.00 in0.0 mm 0.00 in0.0 mm
07:30 AM 71.5°F21.9°C 61.6°F16.4°C 71% 2.3 mph NW3.7 kmh NW 3.5 mph5.6 kmh 30.13 in1020.3 mb - 0.00 in0.0 mm 0.00 in0.0 mm
07:20 AM 71.0°F21.7°C 61.9°F16.6°C 73% Calm Calm 1.2 mph1.9 kmh 30.12 in1020.0 mb - 0.00 in0.0 mm 0.00 in0.0 mm
07:10 AM 70.7°F21.5°C 62.4°F16.9°C 75% 1.2 mph NW1.9 kmh NW 5.8 mph9.3 kmh 30.12 in1020.0 mb - 0.00 in0.0 mm 0.00 in0.0 mm
07:00 AM 70.5°F21.4°C 62.6°F17.0°C 76% 1.2 mph N1.9 kmh N 3.5 mph5.6 kmh 30.11 in1019.6 mb - 0.00 in0.0 mm 0.00 in0.0 mm
06:50 AM 70.3°F21.3°C 63.1°F17.3°C 78% 1.2 mph NNW1.9 kmh NNW 3.5 mph5.6 kmh 30.11 in1019.6 mb - 0.00 in0.0 mm 0.00 in0.0 mm
06:40 AM 69.4°F20.8°C 63.7°F17.6°C 82% Calm Calm 2.3 mph3.7 kmh 30.11 in1019.6 mb - 0.00 in0.0 mm 0.00 in0.0 mm
06:30 AM 69.3°F20.7°C 63.9°F17.7°C 83% Calm Calm 1.2 mph1.9 kmh 30.10 in1019.3 mb - 0.00 in0.0 mm 0.00 in0.0 mm
06:20 AM 69.4°F20.8°C 64.0°F17.8°C 83% Calm Calm 1.2 mph1.9 kmh 30.10 in1019.3 mb - 0.00 in0.0 mm 0.00 in0.0 mm
06:10 AM 69.3°F20.7°C 64.2°F17.9°C 84% Calm Calm -- 30.10 in1019.3 mb - 0.00 in0.0 mm 0.00 in0.0 mm
06:00 AM 69.6°F20.9°C 64.2°F17.9°C 83% Calm Calm -- 30.10 in1019.3 mb - 0.00 in0.0 mm 0.00 in0.0 mm
05:50 AM 69.4°F20.8°C 64.4°F18.0°C 84% Calm Calm -- 30.10 in1019.3 mb - 0.00 in0.0 mm 0.00 in0.0 mm
05:40 AM 69.4°F20.8°C 64.7°F18.2°C 85% Calm Calm -- 30.09 in1019.0 mb - 0.00 in0.0 mm 0.00 in0.0 mm
05:30 AM 69.6°F20.9°C 64.5°F18.1°C 84% Calm Calm -- 30.10 in1019.3 mb - 0.00 in0.0 mm 0.00 in0.0 mm
05:20 AM 69.6°F20.9°C 64.2°F17.9°C 83% Calm Calm -- 30.10 in1019.3 mb - 0.00 in0.0 mm 0.00 in0.0 mm
05:10 AM 69.6°F20.9°C 64.2°F17.9°C 83% Calm Calm -- 30.10 in1019.3 mb - 0.00 in0.0 mm 0.00 in0.0 mm
05:00 AM 69.6°F20.9°C 64.5°F18.1°C 84% Calm Calm -- 30.10 in1019.3 mb - 0.00 in0.0 mm 0.00 in0.0 mm
04:50 AM 69.6°F20.9°C 64.5°F18.1°C 84% Calm Calm -- 30.10 in1019.3 mb - 0.00 in0.0 mm 0.00 in0.0 mm
04:40 AM 69.2°F20.7°C 64.8°F18.2°C 86% Calm Calm 1.2 mph1.9 kmh 30.10 in1019.3 mb - 0.00 in0.0 mm 0.00 in0.0 mm
04:30 AM 69.0°F20.6°C 65.3°F18.5°C 88% Calm Calm -- 30.10 in1019.3 mb - 0.00 in0.0 mm 0.00 in0.0 mm
04:20 AM 68.9°F20.5°C 65.2°F18.4°C 88% Calm Calm -- 30.10 in1019.3 mb - 0.00 in0.0 mm 0.00 in0.0 mm
04:10 AM 69.0°F20.6°C 65.6°F18.7°C 89% Calm Calm -- 30.10 in1019.3 mb - 0.00 in0.0 mm 0.00 in0.0 mm
04:00 AM 69.2°F20.7°C 65.5°F18.6°C 88% Calm Calm -- 30.10 in1019.3 mb - 0.00 in0.0 mm 0.00 in0.0 mm
03:50 AM 69.2°F20.7°C 65.8°F18.8°C 89% Calm Calm -- 30.11 in1019.6 mb - 0.00 in0.0 mm 0.00 in0.0 mm
03:40 AM 69.2°F20.7°C 66.1°F18.9°C 90% Calm Calm -- 30.10 in1019.3 mb - 0.00 in0.0 mm 0.00 in0.0 mm
03:30 AM 69.1°F20.6°C 66.0°F18.9°C 90% Calm Calm -- 30.10 in1019.3 mb - 0.00 in0.0 mm 0.00 in0.0 mm
03:20 AM 69.2°F20.7°C 66.1°F18.9°C 90% Calm Calm -- 30.10 in1019.3 mb - 0.00 in0.0 mm 0.00 in0.0 mm
03:10 AM 69.2°F20.7°C 66.1°F18.9°C 90% Calm Calm -- 30.10 in1019.3 mb - 0.00 in0.0 mm 0.00 in0.0 mm
03:00 AM 69.1°F20.6°C 66.0°F18.9°C 90% Calm Calm -- 30.10 in1019.3 mb - 0.00 in0.0 mm 0.00 in0.0 mm
02:50 AM 69.0°F20.6°C 65.9°F18.8°C 90% Calm Calm -- 30.11 in1019.6 mb - 0.00 in0.0 mm 0.00 in0.0 mm
02:40 AM 69.0°F20.6°C 65.6°F18.7°C 89% Calm Calm -- 30.11 in1019.6 mb - 0.00 in0.0 mm 0.00 in0.0 mm
02:30 AM 69.5°F20.8°C 65.8°F18.8°C 88% Calm Calm -- 30.11 in1019.6 mb - 0.00 in0.0 mm 0.00 in0.0 mm
02:20 AM 70.3°F21.3°C 66.2°F19.0°C 87% Calm Calm -- 30.11 in1019.6 mb - 0.00 in0.0 mm 0.00 in0.0 mm
02:10 AM 70.4°F21.3°C 66.7°F19.3°C 88% Calm Calm -- 30.11 in1019.6 mb - 0.00 in0.0 mm 0.00 in0.0 mm
02:00 AM 70.1°F21.2°C 66.4°F19.1°C 88% Calm Calm -- 30.11 in1019.6 mb - 0.00 in0.0 mm 0.00 in0.0 mm
01:50 AM 70.3°F21.3°C 66.3°F19.1°C 87% Calm Calm -- 30.11 in1019.6 mb - 0.00 in0.0 mm 0.00 in0.0 mm
01:40 AM 70.7°F21.5°C 66.3°F19.1°C 86% Calm Calm -- 30.11 in1019.6 mb - 0.00 in0.0 mm 0.00 in0.0 mm
01:30 AM 71.0°F21.7°C 66.9°F19.4°C 87% Calm Calm -- 30.11 in1019.6 mb - 0.00 in0.0 mm 0.00 in0.0 mm
01:20 AM 70.7°F21.5°C 66.6°F19.2°C 87% Calm Calm -- 30.11 in1019.6 mb - 0.00 in0.0 mm 0.00 in0.0 mm
01:10 AM 71.0°F21.7°C 66.6°F19.2°C 86% Calm Calm -- 30.11 in1019.6 mb - 0.00 in0.0 mm 0.00 in0.0 mm
01:00 AM 71.0°F21.7°C 66.9°F19.4°C 87% Calm Calm -- 30.12 in1020.0 mb - 0.00 in0.0 mm 0.00 in0.0 mm
12:50 AM 70.7°F21.5°C 66.7°F19.3°C 87% Calm Calm -- 30.11 in1019.6 mb - 0.00 in0.0 mm 0.00 in0.0 mm
12:40 AM 70.8°F21.6°C 66.4°F19.1°C 86% Calm Calm -- 30.11 in1019.6 mb - 0.00 in0.0 mm 0.00 in0.0 mm
12:30 AM 71.0°F21.7°C 66.6°F19.2°C 86% Calm Calm -- 30.11 in1019.6 mb - 0.00 in0.0 mm 0.00 in0.0 mm
12:20 AM 71.0°F21.7°C 66.6°F19.2°C 86% Calm Calm -- 30.12 in1020.0 mb - 0.00 in0.0 mm 0.00 in0.0 mm
12:10 AM 71.1°F21.7°C 66.4°F19.1°C 85% Calm Calm -- 30.13 in1020.3 mb - 0.00 in0.0 mm 0.00 in0.0 mm
12:00 AM 71.5°F21.9°C 66.4°F19.1°C 84% Calm Calm -- 30.13 in1020.3 mb - 0.00 in0.0 mm 0.00 in0.0 mm